createdAt,value
2018-09-08T00:04:06.268Z,11.20
2018-09-08T00:06:34.935Z,11.20
2018-09-08T00:09:04.433Z,11.20
2018-09-08T00:11:32.172Z,11.20
2018-09-08T00:13:59.880Z,11.20
2018-09-08T00:16:32.997Z,11.10
2018-09-08T00:19:06.192Z,11.00
2018-09-08T00:21:39.443Z,11.10
2018-09-08T00:24:12.619Z,11.00
2018-09-08T00:26:39.721Z,10.90
2018-09-08T00:31:53.097Z,10.80
2018-09-08T00:34:20.732Z,10.80
2018-09-08T00:36:48.408Z,10.70
2018-09-08T00:39:16.149Z,10.70
2018-09-08T00:44:11.350Z,10.70
2018-09-08T00:46:39.002Z,10.70
2018-09-08T00:49:06.753Z,10.70
2018-09-08T00:51:34.421Z,10.80
2018-09-08T00:54:02.109Z,10.80
2018-09-08T00:56:29.757Z,10.80
2018-09-08T00:59:02.853Z,10.80
2018-09-08T01:03:58.263Z,10.90
2018-09-08T01:06:25.966Z,10.80
2018-09-08T01:08:53.643Z,10.70
2018-09-08T01:11:21.309Z,10.70
2018-09-08T01:13:48.979Z,10.70
2018-09-08T01:16:16.837Z,10.60
2018-09-08T01:18:44.473Z,10.60
2018-09-08T01:21:12.182Z,10.60
2018-09-08T01:23:40.059Z,10.60
2018-09-08T01:26:07.768Z,10.60
2018-09-08T01:28:35.419Z,10.60
2018-09-08T01:31:03.131Z,10.50
2018-09-08T01:33:30.813Z,10.60
2018-09-08T01:35:58.514Z,10.60
2018-09-08T01:38:26.301Z,10.60
2018-09-08T01:40:53.982Z,10.70
2018-09-08T01:48:16.746Z,10.80
2018-09-08T01:50:44.415Z,10.90
2018-09-08T01:53:12.113Z,10.80
2018-09-08T01:55:39.813Z,10.90
2018-09-08T01:58:07.512Z,10.80
2018-09-08T02:00:35.182Z,10.80
2018-09-08T02:03:02.838Z,10.90
2018-09-08T02:05:30.544Z,10.90
2018-09-08T02:07:58.197Z,10.90
2018-09-08T02:12:53.437Z,10.90
2018-09-08T02:15:21.109Z,10.90
2018-09-08T02:17:48.807Z,10.90
2018-09-08T02:20:16.439Z,10.80
2018-09-08T02:22:44.100Z,10.90
2018-09-08T02:25:13.950Z,10.90
2018-09-08T02:27:41.689Z,11.00
2018-09-08T02:32:36.979Z,10.90
2018-09-08T02:35:04.879Z,10.90
2018-09-08T02:37:32.537Z,10.80
2018-09-08T02:40:00.159Z,10.80
2018-09-08T02:42:27.925Z,10.70
2018-09-08T02:44:55.628Z,10.60
2018-09-08T02:47:23.308Z,10.50
2018-09-08T02:50:02.194Z,10.40
2018-09-08T02:52:28.698Z,10.40
2018-09-08T02:54:55.205Z,10.40
2018-09-08T02:59:48.714Z,10.40
2018-09-08T03:02:15.259Z,10.30
2018-09-08T03:04:41.830Z,10.40
2018-09-08T03:07:12.244Z,10.50
2018-09-08T03:09:39.388Z,10.60
2018-09-08T03:12:06.245Z,10.60
2018-09-08T03:14:32.744Z,10.70
2018-09-08T03:19:26.270Z,10.70
2018-09-08T03:21:52.773Z,10.80
2018-09-08T03:24:19.304Z,10.80
2018-09-08T03:26:45.789Z,10.70
2018-09-08T03:29:12.320Z,10.60
2018-09-08T03:31:38.839Z,10.60
2018-09-08T03:34:05.351Z,10.50
2018-09-08T03:38:58.828Z,10.40
2018-09-08T03:41:25.364Z,10.40
2018-09-08T03:43:51.878Z,10.30
2018-09-08T03:46:18.748Z,10.40
2018-09-08T03:48:45.352Z,10.40
2018-09-08T03:56:05.932Z,10.30
2018-09-08T03:58:32.434Z,10.20
2018-09-08T04:00:58.944Z,10.10
2018-09-08T04:03:26.627Z,10.00
2018-09-08T04:05:54.292Z,10.00
2018-09-08T04:08:21.968Z,10.00
2018-09-08T04:10:50.093Z,10.00
2018-09-08T04:13:17.927Z,10.00
2018-09-08T04:15:45.599Z,10.00
2018-09-08T04:18:13.349Z,9.90
2018-09-08T04:20:41.022Z,9.90
2018-09-08T04:23:08.639Z,9.80
2018-09-08T04:25:36.260Z,9.80
2018-09-08T04:28:03.969Z,9.70
2018-09-08T04:32:59.183Z,9.70
2018-09-08T04:35:26.950Z,9.60
2018-09-08T04:40:22.173Z,9.60
2018-09-08T04:42:49.843Z,9.60
2018-09-08T04:45:17.513Z,9.50
2018-09-08T04:47:45.208Z,9.50
2018-09-08T04:50:12.858Z,9.50
2018-09-08T04:52:40.584Z,9.50
2018-09-08T04:55:08.354Z,9.50
2018-09-08T05:00:03.675Z,9.50
2018-09-08T05:04:58.965Z,9.50
2018-09-08T05:07:26.658Z,9.50
2018-09-08T05:09:54.303Z,9.50
2018-09-08T05:12:22.000Z,9.50
2018-09-08T05:17:17.260Z,9.50
2018-09-08T05:22:12.436Z,9.50
2018-09-08T05:24:40.104Z,9.50
2018-09-08T05:27:07.694Z,9.50
2018-09-08T05:29:35.379Z,9.50
2018-09-08T05:32:03.054Z,9.50
2018-09-08T05:34:30.721Z,9.50
2018-09-08T05:36:58.350Z,9.50
2018-09-08T05:41:53.539Z,9.60
2018-09-08T05:46:48.814Z,9.70
2018-09-08T05:49:16.494Z,9.80
2018-09-08T05:51:44.196Z,9.80
2018-09-08T05:56:39.453Z,9.90
2018-09-08T05:59:07.181Z,10.00
2018-09-08T06:01:34.845Z,10.00
2018-09-08T06:04:02.559Z,10.10
2018-09-08T06:06:30.200Z,10.10
2018-09-08T06:08:57.877Z,10.10
2018-09-08T06:11:25.520Z,10.10
2018-09-08T06:13:53.863Z,10.10
2018-09-08T06:16:21.516Z,10.10
2018-09-08T06:18:49.269Z,10.20
2018-09-08T06:21:16.898Z,10.20
2018-09-08T06:23:44.624Z,10.40
2018-09-08T06:26:12.279Z,10.50
2018-09-08T06:31:07.527Z,10.60
2018-09-08T06:36:03.678Z,10.70
2018-09-08T06:38:31.336Z,10.80
2018-09-08T06:40:58.973Z,10.90
2018-09-08T06:43:26.620Z,11.10
2018-09-08T06:45:54.316Z,11.20
2018-09-08T06:50:49.540Z,11.20
2018-09-08T06:53:17.222Z,11.30
2018-09-08T06:55:44.920Z,11.40
2018-09-08T06:58:12.570Z,11.40
2018-09-08T07:00:40.291Z,11.60
2018-09-08T07:03:07.926Z,11.70
2018-09-08T07:05:35.626Z,11.80
2018-09-08T07:08:03.271Z,11.90
2018-09-08T07:10:30.977Z,12.10
2018-09-08T07:12:58.671Z,12.10
2018-09-08T07:15:26.398Z,12.30
2018-09-08T07:17:54.102Z,12.30
2018-09-08T07:20:21.759Z,12.40
2018-09-08T07:25:16.977Z,12.70
2018-09-08T07:27:44.672Z,12.70
2018-09-08T07:30:12.340Z,13.00
2018-09-08T07:32:40.026Z,13.20
2018-09-08T07:35:07.706Z,13.20
2018-09-08T07:40:02.968Z,13.40
2018-09-08T07:42:30.652Z,13.60
2018-09-08T07:44:58.289Z,13.70
2018-09-08T07:47:25.965Z,13.90
2018-09-08T07:49:54.088Z,14.10
2018-09-08T07:52:21.758Z,14.40
2018-09-08T07:54:49.435Z,14.50
2018-09-08T07:57:17.177Z,14.70
2018-09-08T07:59:44.825Z,14.80
2018-09-08T08:02:12.520Z,15.00
2018-09-08T08:04:40.195Z,15.00
2018-09-08T08:09:40.430Z,15.20
2018-09-08T08:12:08.126Z,15.20
2018-09-08T08:19:31.218Z,15.30
2018-09-08T08:24:26.490Z,15.50
2018-09-08T08:26:54.160Z,15.50
2018-09-08T08:29:21.799Z,15.60
2018-09-08T08:31:49.546Z,16.00
2018-09-08T08:34:17.321Z,16.30
2018-09-08T08:36:44.958Z,16.70
2018-09-08T08:39:12.646Z,17.20
2018-09-08T08:41:40.317Z,17.70
2018-09-08T08:44:08.021Z,18.10
2018-09-08T08:46:35.731Z,18.50
2018-09-08T08:49:03.436Z,18.60
2018-09-08T08:52:41.890Z,18.90
2018-09-08T08:55:08.434Z,19.00
2018-09-08T08:57:36.101Z,18.80
2018-09-08T09:00:03.977Z,18.90
2018-09-08T09:02:31.647Z,18.60
2018-09-08T09:07:26.894Z,18.50
2018-09-08T09:09:54.509Z,18.30
2018-09-08T09:12:22.157Z,18.60
2018-09-08T09:14:49.876Z,18.40
2018-09-08T09:17:17.570Z,18.50
2018-09-08T09:19:56.629Z,18.70
2018-09-08T09:22:35.670Z,18.70
2018-09-08T09:27:44.917Z,19.20
2018-09-08T09:30:13.201Z,19.00
2018-09-08T09:32:40.918Z,18.70
2018-09-08T09:35:10.055Z,18.50
2018-09-08T09:37:37.795Z,18.60
2018-09-08T09:40:06.707Z,18.90
2018-09-08T09:42:34.410Z,18.90
2018-09-08T09:45:02.106Z,19.00
2018-09-08T09:49:57.338Z,20.30
2018-09-08T09:54:52.541Z,21.30
2018-09-08T09:59:47.785Z,22.00
2018-09-08T10:02:46.225Z,22.90
2018-09-08T10:05:23.326Z,23.20
2018-09-08T10:07:51.592Z,23.80
2018-09-08T10:10:20.760Z,22.90
2018-09-08T10:12:48.481Z,23.10
2018-09-08T10:15:16.155Z,23.00
2018-09-08T10:17:44.506Z,22.90
2018-09-08T10:20:14.583Z,23.40
2018-09-08T10:22:42.519Z,24.40
2018-09-08T10:25:15.656Z,25.50
2018-09-08T10:27:44.105Z,25.90
2018-09-08T10:30:12.502Z,26.30
2018-09-08T10:35:08.697Z,27.20
2018-09-08T10:37:36.496Z,27.00
2018-09-08T10:42:31.855Z,26.10
2018-09-08T10:44:59.561Z,26.30
2018-09-08T10:47:27.280Z,26.10
2018-09-08T10:49:55.229Z,25.70
2018-09-08T10:52:32.016Z,25.50
2018-09-08T10:54:59.682Z,25.60
2018-09-08T10:57:27.359Z,26.40
2018-09-08T10:59:55.046Z,27.10
2018-09-08T11:02:23.151Z,28.00
2018-09-08T11:04:50.494Z,28.40
2018-09-08T11:07:18.128Z,28.60
2018-09-08T11:09:45.851Z,28.20
2018-09-08T11:12:13.526Z,28.20
2018-09-08T11:14:41.240Z,27.90
2018-09-08T11:17:08.905Z,27.80
2018-09-08T11:22:04.121Z,27.20
2018-09-08T11:24:32.218Z,27.00
2018-09-08T11:26:59.863Z,27.30
2018-09-08T11:31:55.111Z,27.30
2018-09-08T11:34:22.834Z,28.10
2018-09-08T11:39:18.252Z,28.70
2018-09-08T11:41:46.267Z,28.60
2018-09-08T11:46:41.474Z,28.90
2018-09-08T11:49:09.113Z,28.70
2018-09-08T11:51:36.811Z,28.60
2018-09-08T11:54:04.476Z,27.70
2018-09-08T11:56:32.239Z,27.30
2018-09-08T11:58:59.929Z,27.70
2018-09-08T12:01:27.594Z,27.40
2018-09-08T12:06:22.942Z,25.60
2018-09-08T12:08:50.634Z,25.00
2018-09-08T12:11:18.397Z,24.00
2018-09-08T12:13:46.143Z,23.20
2018-09-08T12:18:41.432Z,22.10
2018-09-08T12:21:09.157Z,21.90
2018-09-08T12:23:36.858Z,22.50
2018-09-08T12:26:04.668Z,23.10
2018-09-08T12:28:32.318Z,23.10
2018-09-08T12:31:00.140Z,23.60
2018-09-08T12:33:27.744Z,23.80
2018-09-08T12:35:55.432Z,23.80
2018-09-08T12:38:23.171Z,24.40
2018-09-08T12:40:50.877Z,24.70
2018-09-08T12:43:18.572Z,24.80
2018-09-08T12:45:46.305Z,25.00
2018-09-08T12:48:13.967Z,24.80
2018-09-08T12:50:41.651Z,24.70
2018-09-08T12:53:09.353Z,24.70
2018-09-08T12:55:37.044Z,24.80
2018-09-08T12:58:04.884Z,25.00
2018-09-08T13:00:32.545Z,24.80
2018-09-08T13:03:00.241Z,24.60
2018-09-08T13:05:27.952Z,24.50
2018-09-08T13:07:55.674Z,24.70
2018-09-08T13:10:23.329Z,25.10
2018-09-08T13:12:51.033Z,25.40
2018-09-08T13:15:18.728Z,25.60
2018-09-08T13:17:46.456Z,26.00
2018-09-08T13:20:14.106Z,25.90
2018-09-08T13:22:41.801Z,25.70
2018-09-08T13:25:09.502Z,24.70
2018-09-08T13:27:37.217Z,24.10
2018-09-08T13:30:05.358Z,23.50
2018-09-08T13:32:33.028Z,23.00
2018-09-08T13:35:00.669Z,22.50
2018-09-08T13:37:28.324Z,22.20
2018-09-08T13:39:56.064Z,22.40
2018-09-08T13:44:51.652Z,24.30
2018-09-08T13:47:19.349Z,25.10
2018-09-08T13:49:47.062Z,25.60
2018-09-08T13:52:14.748Z,26.00
2018-09-08T13:54:42.451Z,25.60
2018-09-08T13:57:10.115Z,25.70
2018-09-08T13:59:37.818Z,25.60
2018-09-08T14:02:05.589Z,25.40
2018-09-08T14:04:33.353Z,25.30
2018-09-08T14:07:00.985Z,26.50
2018-09-08T14:09:28.749Z,27.40
2018-09-08T14:11:56.418Z,27.80
2018-09-08T14:14:24.120Z,28.40
2018-09-08T14:16:51.772Z,29.00
2018-09-08T14:19:19.468Z,29.10
2018-09-08T14:21:47.190Z,29.10
2018-09-08T14:24:14.863Z,28.20
2018-09-08T14:26:42.493Z,27.00
2018-09-08T14:29:10.174Z,26.30
2018-09-08T14:31:38.734Z,26.70
2018-09-08T14:34:06.478Z,27.80
2018-09-08T14:36:34.183Z,28.00
2018-09-08T14:39:01.858Z,27.70
2018-09-08T14:41:29.617Z,27.30
2018-09-08T14:43:57.282Z,27.30
2018-09-08T14:46:25.026Z,27.70
2018-09-08T14:51:20.262Z,28.70
2018-09-08T14:53:48.007Z,28.50
2018-09-08T14:56:15.684Z,27.40
2018-09-08T14:58:43.339Z,25.90
2018-09-08T15:03:38.559Z,24.90
2018-09-08T15:06:06.222Z,25.10
2018-09-08T15:11:01.448Z,26.30
2018-09-08T15:13:29.142Z,27.60
2018-09-08T15:15:56.802Z,28.50
2018-09-08T15:18:24.429Z,28.80
2018-09-08T15:20:52.142Z,28.90
2018-09-08T15:23:19.809Z,28.60
2018-09-08T15:28:15.064Z,30.40
2018-09-08T15:30:46.304Z,31.00
2018-09-08T15:33:14.322Z,30.70
2018-09-08T15:35:42.027Z,30.20
2018-09-08T15:38:09.718Z,29.60
2018-09-08T15:40:37.390Z,29.40
2018-09-08T15:43:05.280Z,30.00
2018-09-08T15:45:33.011Z,30.20
2018-09-08T15:48:00.709Z,29.90
2018-09-08T15:50:28.359Z,29.50
2018-09-08T15:52:56.048Z,29.00
2018-09-08T15:55:23.754Z,28.40
2018-09-08T15:57:51.410Z,27.90
2018-09-08T16:07:41.907Z,27.70
2018-09-08T16:10:09.557Z,27.30
2018-09-08T16:12:37.259Z,27.10
2018-09-08T16:15:05.071Z,26.60
2018-09-08T16:17:32.795Z,26.10
2018-09-08T16:20:00.449Z,25.70
2018-09-08T16:22:28.110Z,25.30
2018-09-08T16:24:56.679Z,25.00
2018-09-08T16:27:24.367Z,24.90
2018-09-08T16:29:52.055Z,24.60
2018-09-08T16:32:19.749Z,24.30
2018-09-08T16:34:47.440Z,24.00
2018-09-08T16:37:15.092Z,23.70
2018-09-08T16:39:42.804Z,23.20
2018-09-08T16:42:10.473Z,22.60
2018-09-08T16:44:38.195Z,22.10
2018-09-08T16:47:05.849Z,21.90
2018-09-08T16:49:33.535Z,21.50
2018-09-08T16:52:01.231Z,21.00
2018-09-08T16:54:28.924Z,20.70
2018-09-08T16:56:56.633Z,20.40
2018-09-08T16:59:24.328Z,20.00
2018-09-08T17:01:52.127Z,19.70
2018-09-08T17:04:19.768Z,19.50
2018-09-08T17:06:47.511Z,19.20
2018-09-08T17:09:15.159Z,19.00
2018-09-08T17:14:10.423Z,18.60
2018-09-08T17:16:38.178Z,18.50
2018-09-08T17:21:33.411Z,18.20
2018-09-08T17:24:01.043Z,18.00
2018-09-08T17:26:28.791Z,17.90
2018-09-08T17:28:56.443Z,17.70
2018-09-08T17:31:24.116Z,17.60
2018-09-08T17:33:51.770Z,17.50
2018-09-08T17:41:14.673Z,17.20
2018-09-08T17:43:42.330Z,16.90
2018-09-08T17:48:37.624Z,16.60
2018-09-08T17:51:05.448Z,16.40
2018-09-08T17:53:33.159Z,16.30
2018-09-08T17:56:00.865Z,16.20
2018-09-08T17:58:28.613Z,16.00
2018-09-08T18:00:56.290Z,15.90
2018-09-08T18:03:23.974Z,15.80
2018-09-08T18:05:51.737Z,15.60
2018-09-08T18:08:24.009Z,15.50
2018-09-08T18:10:52.016Z,15.50
2018-09-08T18:13:19.724Z,15.40
2018-09-08T18:15:47.449Z,15.30
2018-09-08T18:18:15.123Z,15.20
2018-09-08T18:20:42.811Z,15.30
2018-09-08T18:23:10.513Z,15.20
2018-09-08T18:25:38.210Z,15.30
2018-09-08T18:28:05.926Z,15.00
2018-09-08T18:35:28.683Z,14.80
2018-09-08T18:37:56.464Z,14.70
2018-09-08T18:40:24.352Z,14.70
2018-09-08T18:42:52.065Z,14.70
2018-09-08T18:45:20.012Z,14.80
2018-09-08T18:47:47.750Z,14.80
2018-09-08T18:50:15.414Z,14.70
2018-09-08T18:52:43.069Z,14.60
2018-09-08T18:55:10.816Z,14.50
2018-09-08T18:57:38.979Z,14.40
2018-09-08T19:00:07.306Z,14.30
2018-09-08T19:02:35.431Z,14.20
2018-09-08T19:07:32.195Z,14.10
2018-09-08T19:10:05.615Z,14.10
2018-09-08T19:12:35.378Z,14.10
2018-09-08T19:15:10.517Z,14.00
2018-09-08T19:17:40.143Z,13.90
2018-09-08T19:20:13.573Z,13.80
2018-09-08T19:22:42.049Z,13.70
2018-09-08T19:25:10.260Z,13.60
2018-09-08T19:27:39.106Z,13.40
2018-09-08T19:30:08.256Z,13.40
2018-09-08T19:32:37.114Z,13.30
2018-09-08T19:35:11.180Z,13.30
2018-09-08T19:37:38.846Z,13.20
2018-09-08T19:40:12.430Z,13.20
2018-09-08T19:42:40.148Z,13.10
2018-09-08T19:45:08.379Z,13.30
2018-09-08T19:47:42.167Z,13.20
2018-09-08T19:55:12.346Z,13.00
2018-09-08T19:57:46.419Z,13.00
2018-09-08T20:02:43.112Z,12.80
2018-09-08T20:05:11.936Z,12.80
2018-09-08T20:07:40.424Z,12.90
2018-09-08T20:10:11.492Z,12.80
2018-09-08T20:12:40.254Z,12.70
2018-09-08T20:15:08.849Z,12.70
2018-09-08T20:17:36.539Z,12.60
2018-09-08T20:20:05.687Z,12.60
2018-09-08T20:22:34.441Z,12.60
2018-09-08T20:25:02.627Z,12.70
2018-09-08T20:32:28.020Z,12.50
2018-09-08T20:34:56.371Z,12.50
2018-09-08T20:37:25.464Z,12.50
2018-09-08T20:39:53.178Z,12.50
2018-09-08T20:42:21.948Z,12.40
2018-09-08T20:44:50.734Z,12.30
2018-09-08T20:47:21.770Z,12.40
2018-09-08T20:49:51.186Z,12.30
2018-09-08T20:52:19.764Z,12.30
2018-09-08T20:54:48.916Z,12.20
2018-09-08T20:57:16.579Z,12.10
2018-09-08T20:59:44.255Z,12.00
2018-09-08T21:02:12.071Z,12.00
2018-09-08T21:04:39.817Z,12.00
2018-09-08T21:07:08.675Z,11.90
2018-09-08T21:09:36.674Z,11.80
2018-09-08T21:12:04.558Z,11.80
2018-09-08T21:14:32.310Z,11.90
2018-09-08T21:19:27.641Z,11.70
2018-09-08T21:21:55.380Z,11.70
2018-09-08T21:24:23.067Z,11.70
2018-09-08T21:26:50.760Z,11.70
2018-09-08T21:29:18.425Z,11.70
2018-09-08T21:31:46.174Z,11.70
2018-09-08T21:34:13.836Z,11.60
2018-09-08T21:36:41.519Z,11.50
2018-09-08T21:39:09.686Z,11.50
2018-09-08T21:44:05.256Z,11.40
2018-09-08T21:46:32.981Z,11.40
2018-09-08T21:49:00.659Z,11.40
2018-09-08T21:51:28.346Z,11.50
2018-09-08T21:53:56.064Z,11.40
2018-09-08T21:56:23.736Z,11.40
2018-09-08T21:58:51.450Z,11.40
2018-09-08T22:01:24.105Z,11.30
2018-09-08T22:06:19.932Z,11.20
2018-09-08T22:08:47.572Z,11.20
2018-09-08T22:11:15.260Z,11.20
2018-09-08T22:13:42.977Z,11.20
2018-09-08T22:16:10.727Z,11.10
2018-09-08T22:18:38.430Z,11.10
2018-09-08T22:21:06.124Z,11.10
2018-09-08T22:23:33.760Z,11.00
2018-09-08T22:26:01.475Z,10.90
2018-09-08T22:30:56.745Z,11.00
2018-09-08T22:33:24.425Z,10.90
2018-09-08T22:35:52.075Z,10.90
2018-09-08T22:38:19.804Z,10.80
2018-09-08T22:40:47.525Z,10.90
2018-09-08T22:43:15.318Z,10.80
2018-09-08T22:45:42.991Z,10.70
2018-09-08T22:48:10.685Z,10.70
2018-09-08T22:50:38.937Z,10.60
2018-09-08T22:53:07.346Z,10.60
2018-09-08T22:55:35.066Z,10.60
2018-09-08T22:58:02.728Z,10.50
2018-09-08T23:00:30.400Z,10.50
2018-09-08T23:02:58.119Z,10.50
2018-09-08T23:05:25.797Z,10.50
2018-09-08T23:07:53.457Z,10.50
2018-09-08T23:10:21.170Z,10.40
2018-09-08T23:15:16.397Z,10.30
2018-09-08T23:17:44.110Z,10.30
2018-09-08T23:20:12.140Z,10.40
2018-09-08T23:22:39.840Z,10.30
2018-09-08T23:25:07.531Z,10.30
2018-09-08T23:27:35.196Z,10.30
2018-09-08T23:32:30.436Z,10.20
2018-09-08T23:34:58.131Z,10.20
2018-09-08T23:37:25.820Z,10.20
2018-09-08T23:42:20.997Z,10.20
2018-09-08T23:44:48.683Z,10.20
2018-09-08T23:47:16.336Z,10.30
2018-09-08T23:49:44.033Z,10.30
2018-09-08T23:52:11.708Z,10.20
2018-09-08T23:59:34.570Z,10.10
